Time;durP1;ratioP1;P1;durP2;ratioP2;P2;SDS_P1;SDS_P2;PMS_P1;PMS_P2;Temp;Humidity;BMP_temperature;BMP_pressure;BME280_temperature;BME280_humidity;BME280_pressure;Samples;Min_cycle;Max_cycle;Signal;HPM_P1;HPM_P2
2024/04/04 00:01:46;;;;;;;18.98;3.00;;;10.80;92.90;;;;;;5013566;28;20053;-58
2024/04/04 00:04:12;;;;;;;17.30;2.58;;;10.80;92.80;;;;;;5002785;28;20045;-60
2024/04/04 00:06:37;;;;;;;16.92;2.25;;;10.80;92.90;;;;;;5018060;28;20050;-58
2024/04/04 00:09:03;;;;;;;16.10;3.20;;;10.80;93.00;;;;;;5024822;28;20412;-57
2024/04/04 00:11:28;;;;;;;18.00;2.58;;;10.80;92.60;;;;;;5008156;28;20042;-60
2024/04/04 00:13:54;;;;;;;18.63;2.22;;;10.80;93.20;;;;;;4991210;28;20060;-57
2024/04/04 00:16:20;;;;;;;14.77;2.55;;;10.80;93.30;;;;;;5007687;28;20081;-58
2024/04/04 00:18:47;;;;;;;16.20;2.80;;;10.80;93.20;;;;;;5007164;28;20466;-59
2024/04/04 00:21:13;;;;;;;14.55;2.50;;;10.80;92.40;;;;;;5010014;28;20054;-58
2024/04/04 00:23:39;;;;;;;17.83;2.88;;;10.90;92.00;;;;;;5018965;28;20052;-60
2024/04/04 00:26:04;;;;;;;19.23;2.85;;;10.90;92.20;;;;;;5007222;28;20060;-59
2024/04/04 00:28:32;;;;;;;17.63;2.90;;;11.40;93.10;;;;;;5007350;28;20421;-57
2024/04/04 00:30:58;;;;;;;14.75;2.58;;;10.80;91.70;;;;;;5006948;28;20450;-57
2024/04/04 00:33:24;;;;;;;20.88;2.63;;;10.80;92.30;;;;;;5007491;28;20066;-57
2024/04/04 00:35:50;;;;;;;15.25;2.35;;;10.30;92.90;;;;;;5006792;28;20053;-57
2024/04/04 00:38:15;;;;;;;21.92;2.60;;;10.80;92.10;;;;;;5027068;28;20365;-59
2024/04/04 00:40:41;;;;;;;15.93;2.63;;;11.30;91.90;;;;;;5004835;28;20045;-57
2024/04/04 00:43:07;;;;;;;16.95;2.40;;;10.70;92.60;;;;;;5013741;28;20064;-57
2024/04/04 00:45:35;;;;;;;18.63;2.20;;;10.70;92.40;;;;;;5007560;28;20046;-59
2024/04/04 00:48:00;;;;;;;23.00;2.90;;;10.70;92.60;;;;;;5006871;28;20042;-59
2024/04/04 00:50:27;;;;;;;18.05;3.10;;;10.70;92.10;;;;;;5008059;28;20044;-57
2024/04/04 00:52:54;;;;;;;14.50;2.40;;;10.70;92.40;;;;;;5007482;28;20046;-57
2024/04/04 00:55:25;;;;;;;12.40;2.17;;;11.10;92.80;;;;;;5007051;28;20050;-59
2024/04/04 00:57:52;;;;;;;18.45;2.42;;;11.80;94.00;;;;;;5016584;28;20102;-57
2024/04/04 01:00:18;;;;;;;17.10;2.53;;;10.70;92.60;;;;;;5017556;28;20086;-57
2024/04/04 01:02:44;;;;;;;15.40;2.83;;;10.50;94.10;;;;;;5026910;28;20400;-58
2024/04/04 01:05:12;;;;;;;14.35;2.72;;;10.60;92.90;;;;;;5013963;28;20550;-60
2024/04/04 01:07:38;;;;;;;17.75;2.67;;;10.70;92.90;;;;;;5007129;28;20367;-59
2024/04/04 01:10:05;;;;;;;18.00;2.60;;;10.40;93.60;;;;;;5007358;28;20057;-57
2024/04/04 01:12:31;;;;;;;18.00;2.22;;;10.60;92.60;;;;;;5007550;28;20546;-57
2024/04/04 01:14:56;;;;;;;19.40;2.25;;;10.40;94.60;;;;;;5007467;28;20137;-58
2024/04/04 01:17:22;;;;;;;19.85;2.38;;;10.60;93.50;;;;;;5005042;28;20536;-57
2024/04/04 01:19:48;;;;;;;20.42;2.90;;;10.50;93.70;;;;;;5016572;28;20358;-57
2024/04/04 01:22:14;;;;;;;14.55;2.78;;;10.70;93.20;;;;;;5019572;28;20045;-58
2024/04/04 01:24:39;;;;;;;23.85;2.92;;;10.90;95.00;;;;;;5012523;28;20499;-57
2024/04/04 01:27:05;;;;;;;16.48;2.70;;;10.50;93.90;;;;;;5014774;28;20547;-57
2024/04/04 01:29:30;;;;;;;15.40;2.20;;;10.50;93.30;;;;;;5007068;28;20046;-58
2024/04/04 01:31:56;;;;;;;18.30;2.80;;;10.40;93.40;;;;;;4989918;28;20081;-59
2024/04/04 01:34:22;;;;;;;14.20;2.25;;;10.20;94.60;;;;;;5006059;28;20152;-57
2024/04/04 01:36:47;;;;;;;15.75;2.72;;;10.40;93.60;;;;;;5006630;28;20439;-57
2024/04/04 01:39:13;;;;;;;19.52;2.88;;;10.40;93.50;;;;;;5014630;28;20042;-57
2024/04/04 01:41:39;;;;;;;13.30;2.72;;;10.30;94.40;;;;;;5012190;28;20049;-59
2024/04/04 01:44:06;;;;;;;14.23;2.42;;;10.30;93.30;;;;;;5014261;28;20050;-57
2024/04/04 01:46:31;;;;;;;18.27;2.35;;;10.20;94.30;;;;;;5004130;28;20092;-58
2024/04/04 01:48:57;;;;;;;20.52;2.80;;;10.70;96.70;;;;;;5005672;28;20081;-58
2024/04/04 01:51:22;;;;;;;14.82;2.55;;;10.80;97.10;;;;;;5008144;28;20548;-59
2024/04/04 01:53:48;;;;;;;15.18;2.25;;;10.10;95.70;;;;;;5009892;28;20045;-58
2024/04/04 01:56:14;;;;;;;19.52;2.40;;;10.10;95.60;;;;;;5016679;28;20058;-58
2024/04/04 01:58:39;;;;;;;16.90;2.60;;;10.00;96.80;;;;;;5007645;28;20054;-57
2024/04/04 02:01:05;;;;;;;21.77;2.92;;;10.00;95.80;;;;;;5010569;28;20122;-59
2024/04/04 02:03:30;;;;;;;16.40;2.83;;;10.20;96.20;;;;;;5012047;28;20074;-59
2024/04/04 02:05:56;;;;;;;18.02;2.50;;;10.00;96.00;;;;;;5005051;28;20045;-57
2024/04/04 02:08:21;;;;;;;17.60;2.63;;;10.00;96.00;;;;;;5005365;28;20469;-58
2024/04/04 02:10:47;;;;;;;21.33;2.90;;;9.90;96.50;;;;;;5007815;28;20038;-58
2024/04/04 02:13:12;;;;;;;22.63;2.97;;;9.90;96.50;;;;;;5008545;28;20538;-58
2024/04/04 02:15:40;;;;;;;16.08;2.70;;;11.80;97.50;;;;;;5013153;28;20046;-58
2024/04/04 02:18:06;;;;;;;17.83;2.50;;;9.80;96.90;;;;;;5005063;28;20046;-59
2024/04/04 02:20:32;;;;;;;17.25;2.78;;;10.30;98.70;;;;;;5005544;28;20127;-57
2024/04/04 02:22:58;;;;;;;20.73;2.75;;;10.90;98.50;;;;;;5005292;28;20058;-61
2024/04/04 02:25:24;;;;;;;21.42;2.92;;;9.90;96.80;;;;;;5004297;28;20512;-59
2024/04/04 02:27:49;;;;;;;20.30;2.50;;;9.90;97.20;;;;;;5016581;28;20060;-57
2024/04/04 02:30:15;;;;;;;16.73;2.28;;;;;;;;;;5004361;28;20473;-58
2024/04/04 02:32:41;;;;;;;23.85;2.75;;;8.40;97.60;;;;;;5020413;28;20667;-59
2024/04/04 02:35:08;;;;;;;19.83;2.40;;;11.10;97.10;;;;;;5005294;28;20162;-58
2024/04/04 02:37:34;;;;;;;17.23;2.50;;;9.60;96.60;;;;;;5013772;28;20075;-57
2024/04/04 02:40:00;;;;;;;16.92;2.53;;;9.50;96.80;;;;;;5006299;28;20507;-60
2024/04/04 02:42:28;;;;;;;12.45;2.15;;;9.40;96.90;;;;;;5019066;28;20042;-57
2024/04/04 02:44:53;;;;;;;18.45;2.22;;;9.40;97.10;;;;;;5005121;28;20121;-58
2024/04/04 02:47:19;;;;;;;12.23;2.28;;;7.00;97.20;;;;;;5023758;28;20120;-58
2024/04/04 02:49:44;;;;;;;20.33;2.70;;;10.80;98.10;;;;;;5019771;28;20042;-57
2024/04/04 02:52:10;;;;;;;;;;;9.30;96.50;;;;;;5020480;28;20053;-56
2024/04/04 02:54:37;;;;;;;19.00;2.47;;;9.00;98.90;;;;;;5017649;28;20034;-57
2024/04/04 02:57:02;;;;;;;22.52;2.92;;;9.70;99.00;;;;;;5019742;28;20083;-57
2024/04/04 02:59:28;;;;;;;24.63;2.72;;;9.00;97.10;;;;;;5029240;28;20513;-58
2024/04/04 03:01:54;;;;;;;;;;;9.00;97.30;;;;;;5014985;28;20052;-57
2024/04/04 03:04:20;;;;;;;15.23;2.88;;;9.50;97.20;;;;;;4997005;28;20266;-57
2024/04/04 03:06:45;;;;;;;11.93;2.03;;;9.20;97.00;;;;;;5027879;28;20105;-56
2024/04/04 03:09:11;;;;;;;18.52;2.33;;;9.80;98.20;;;;;;5013460;28;20079;-57
2024/04/04 03:11:36;;;;;;;15.35;2.08;;;8.80;96.60;;;;;;5016465;28;20056;-58
2024/04/04 03:14:03;;;;;;;8.40;2.00;;;8.80;96.60;;;;;;5012237;28;20132;-58
2024/04/04 03:16:28;;;;;;;15.93;2.00;;;8.80;96.60;;;;;;5007976;28;20061;-60
2024/04/04 03:18:54;;;;;;;13.13;2.22;;;8.70;96.60;;;;;;5021120;28;20053;-57
2024/04/04 03:21:19;;;;;;;14.15;2.42;;;8.70;96.50;;;;;;5014903;28;20036;-59
2024/04/04 03:23:45;;;;;;;;;;;10.20;96.80;;;;;;5018198;28;20492;-57
2024/04/04 03:26:11;;;;;;;10.73;2.22;;;8.70;95.90;;;;;;5020473;28;19974;-58
2024/04/04 03:28:36;;;;;;;;;;;8.70;95.90;;;;;;5016776;28;20088;-58
2024/04/04 03:31:02;;;;;;;14.70;2.20;;;8.50;96.70;;;;;;5013623;28;19922;-58
2024/04/04 03:33:27;;;;;;;;;;;8.60;95.10;;;;;;5016808;28;20042;-58
2024/04/04 03:35:53;;;;;;;8.50;1.67;;;8.60;95.50;;;;;;5018847;28;19936;-58
2024/04/04 03:38:19;;;;;;;;;;;8.60;94.80;;;;;;4998825;28;20109;-57
2024/04/04 03:40:52;;;;;;;17.63;2.00;;;8.90;94.70;;;;;;5016770;28;20012;-57
2024/04/04 03:43:18;;;;;;;15.48;1.80;;;8.50;94.50;;;;;;5011803;28;20053;-56
2024/04/04 03:45:43;;;;;;;;;;;8.50;94.60;;;;;;5018494;28;20038;-57
2024/04/04 03:48:09;;;;;;;8.55;1.67;;;6.70;95.60;;;;;;5009974;28;19925;-57
2024/04/04 03:50:34;;;;;;;;;;;8.90;94.40;;;;;;5028142;28;20054;-57
2024/04/04 03:53:09;;;;;;;9.93;1.98;;;8.50;94.70;;;;;;5011996;28;20241;-57
2024/04/04 03:55:35;;;;;;;;;;;8.50;94.90;;;;;;5009488;28;20357;-58
2024/04/04 03:58:00;;;;;;;10.80;2.15;;;8.60;94.90;;;;;;5007108;28;19921;-57
2024/04/04 04:00:26;;;;;;;;;;;8.60;94.90;;;;;;4991255;28;20513;-58
2024/04/04 04:02:51;;;;;;;9.27;1.95;;;9.00;94.90;;;;;;5006093;28;20339;-58
2024/04/04 04:05:17;;;;;;;;;;;8.50;94.70;;;;;;5017182;28;20374;-56
2024/04/04 04:07:42;;;;;;;11.45;2.10;;;8.30;96.90;;;;;;5026228;28;20049;-58
2024/04/04 04:10:08;;;;;;;8.55;1.65;;;8.70;96.90;;;;;;5010953;28;20481;-57
2024/04/04 04:12:33;;;;;;;8.30;1.58;;;8.60;94.90;;;;;;5011758;28;20037;-56
2024/04/04 04:14:59;;;;;;;;;;;10.60;94.80;;;;;;5009625;28;20184;-58
2024/04/04 04:17:25;;;;;;;8.80;1.67;;;9.10;94.20;;;;;;5020712;28;19932;-57
2024/04/04 04:19:50;;;;;;;;;;;8.70;94.00;;;;;;5017301;28;20038;-58
2024/04/04 04:22:16;;;;;;;7.95;1.40;;;8.00;95.70;;;;;;5008173;28;19924;-57
2024/04/04 04:24:42;;;;;;;7.13;1.85;;;9.00;94.10;;;;;;5012483;28;20075;-57
2024/04/04 04:27:08;;;;;;;8.35;1.55;;;8.40;95.60;;;;;;5025222;28;20045;-57
2024/04/04 04:29:33;;;;;;;7.85;1.83;;;7.90;95.70;;;;;;5012440;28;20398;-58
2024/04/04 04:31:59;;;;;;;;;;;8.70;93.80;;;;;;5026589;28;20042;-59
2024/04/04 04:34:24;;;;;;;12.05;1.40;;;8.70;94.10;;;;;;5025698;28;19928;-57
2024/04/04 04:36:54;;;;;;;;;;;8.70;94.10;;;;;;5027333;28;20389;-57
2024/04/04 04:39:20;;;;;;;9.18;1.60;;;8.70;96.20;;;;;;5011967;28;20266;-58
2024/04/04 04:41:46;;;;;;;;;;;8.70;94.40;;;;;;5006534;28;20045;-57
2024/04/04 04:44:11;;;;;;;8.00;1.40;;;8.70;94.50;;;;;;5018202;28;19925;-57
2024/04/04 04:46:37;;;;;;;;;;;8.70;94.60;;;;;;5025752;28;20106;-59
2024/04/04 04:49:02;;;;;;;9.73;1.52;;;8.40;96.90;;;;;;5026011;28;19928;-57
2024/04/04 04:51:28;;;;;;;;;;;8.80;95.20;;;;;;5025879;28;20636;-56
2024/04/04 04:53:54;;;;;;;7.75;1.40;;;8.70;95.00;;;;;;5026182;28;19924;-56
2024/04/04 04:56:19;;;;;;;7.35;1.55;;;8.70;95.10;;;;;;5015971;28;20132;-57
2024/04/04 04:58:45;;;;;;;8.63;1.60;;;10.30;98.00;;;;;;5016621;28;20088;-57
2024/04/04 05:01:10;;;;;;;;;;;8.80;95.50;;;;;;5008024;28;20034;-58
2024/04/04 05:03:36;;;;;;;8.43;1.30;;;10.80;96.10;;;;;;5006685;28;19967;-57
2024/04/04 05:06:02;;;;;;;6.07;1.50;;;6.30;96.80;;;;;;5020640;28;20038;-57
2024/04/04 05:08:27;;;;;;;;;;;8.80;95.90;;;;;;5010164;28;20045;-60
2024/04/04 05:10:53;;;;;;;5.78;1.52;;;8.80;96.60;;;;;;5006565;28;20287;-56
2024/04/04 05:13:19;;;;;;;9.02;1.38;;;8.80;96.40;;;;;;5006157;28;20586;-58
2024/04/04 05:15:54;;;;;;;4.28;1.25;;;8.80;96.50;;;;;;5014709;28;20049;-60
2024/04/04 05:18:21;;;;;;;8.63;1.58;;;8.80;97.20;;;;;;5022266;28;20046;-57
2024/04/04 05:20:46;;;;;;;9.35;1.80;;;8.80;97.40;;;;;;5025043;28;20045;-59
2024/04/04 05:23:12;;;;;;;7.82;1.40;;;9.10;99.40;;;;;;5017443;28;20048;-59
2024/04/04 05:25:38;;;;;;;;;;;8.80;97.40;;;;;;5019095;28;20508;-61
2024/04/04 05:28:04;;;;;;;7.57;1.55;;;9.20;99.90;;;;;;5025332;28;19928;-59
2024/04/04 05:30:31;;;;;;;8.32;1.55;;;8.80;98.70;;;;;;5025660;28;20114;-61
2024/04/04 05:33:00;;;;;;;4.63;1.45;;;10.80;99.90;;;;;;5015710;28;20429;-59
2024/04/04 05:35:25;;;;;;;10.70;1.80;;;7.10;99.80;;;;;;5024043;28;20477;-58
2024/04/04 05:37:51;;;;;;;9.13;1.77;;;8.90;98.90;;;;;;5033923;28;20041;-59
2024/04/04 05:40:17;;;;;;;;;;;8.90;99.30;;;;;;5010894;28;20153;-57
2024/04/04 05:42:42;;;;;;;9.13;1.70;;;8.90;99.90;;;;;;5009284;28;19921;-59
2024/04/04 05:45:08;;;;;;;;;;;8.90;99.90;;;;;;5025900;28;20045;-57
2024/04/04 05:47:33;;;;;;;8.77;2.00;;;8.80;99.90;;;;;;5024916;28;20443;-56
2024/04/04 05:49:59;;;;;;;;;;;8.90;99.90;;;;;;5010657;28;20046;-57
2024/04/04 05:52:24;;;;;;;8.88;1.80;;;8.90;99.90;;;;;;5006606;28;19925;-59
2024/04/04 05:54:52;;;;;;;7.70;1.67;;;8.90;99.90;;;;;;5010245;28;20041;-58
2024/04/04 05:57:18;;;;;;;7.55;1.85;;;9.20;99.90;;;;;;5009756;28;20054;-57
2024/04/04 05:59:44;;;;;;;10.35;2.10;;;9.50;99.90;;;;;;5009167;28;20060;-59
2024/04/04 06:02:10;;;;;;;8.80;1.95;;;9.00;99.90;;;;;;5004818;28;20152;-56
2024/04/04 06:04:35;;;;;;;6.90;2.13;;;9.30;99.90;;;;;;5010044;28;20463;-58
2024/04/04 06:07:02;;;;;;;;;;;9.00;99.90;;;;;;5019796;28;20034;-56
2024/04/04 06:09:29;;;;;;;6.43;1.90;;;9.10;99.90;;;;;;5020012;28;19921;-59
2024/04/04 06:11:55;;;;;;;6.30;2.30;;;9.30;99.90;;;;;;5011525;28;20103;-60
2024/04/04 06:14:21;;;;;;;10.70;2.83;;;10.80;99.90;;;;;;5014928;28;20042;-59
2024/04/04 06:16:46;;;;;;;;;;;9.10;99.90;;;;;;5016726;28;20476;-59
2024/04/04 06:19:12;;;;;;;9.02;2.47;;;10.40;99.90;;;;;;5022119;28;20400;-57
2024/04/04 06:21:38;;;;;;;;;;;9.10;99.90;;;;;;5011780;28;20046;-59
2024/04/04 06:24:03;;;;;;;7.53;3.17;;;9.80;99.90;;;;;;5013050;28;19974;-57
2024/04/04 06:26:29;;;;;;;9.43;3.30;;;9.10;99.90;;;;;;5022561;28;20102;-59
2024/04/04 06:28:55;;;;;;;;;;;9.10;99.90;;;;;;5007298;28;20072;-60
2024/04/04 06:31:21;;;;;;;12.75;3.63;;;9.30;99.90;;;;;;5022823;28;19951;-58
2024/04/04 06:33:47;;;;;;;8.40;3.05;;;9.20;99.90;;;;;;5006377;28;20554;-56
2024/04/04 06:36:13;;;;;;;7.45;3.20;;;9.20;99.90;;;;;;5019130;28;20050;-56
2024/04/04 06:38:39;;;;;;;9.98;3.45;;;8.40;99.90;;;;;;5020051;28;20041;-60
2024/04/04 06:41:05;;;;;;;8.35;3.53;;;9.20;99.90;;;;;;5007940;28;20513;-58
2024/04/04 06:43:30;;;;;;;9.23;3.90;;;9.20;99.90;;;;;;5025336;28;20038;-58
2024/04/04 06:45:56;;;;;;;9.45;3.90;;;9.20;99.90;;;;;;5019673;28;20486;-60
2024/04/04 06:48:22;;;;;;;8.05;3.80;;;9.10;99.90;;;;;;5018800;28;20045;-60
2024/04/04 06:50:47;;;;;;;11.82;4.47;;;9.20;99.90;;;;;;5006000;28;20042;-58
2024/04/04 06:53:13;;;;;;;;;;;9.30;99.90;;;;;;5014461;28;20129;-57
2024/04/04 06:55:38;;;;;;;11.18;4.03;;;9.60;99.90;;;;;;5007534;28;19974;-59
2024/04/04 06:58:04;;;;;;;6.75;3.55;;;9.30;99.90;;;;;;5016477;28;20080;-56
2024/04/04 07:00:30;;;;;;;;;;;9.40;99.90;;;;;;5014237;28;20124;-57
2024/04/04 07:02:55;;;;;;;9.68;4.00;;;9.60;99.90;;;;;;5009257;28;20023;-57
2024/04/04 07:05:22;;;;;;;;;;;9.40;99.90;;;;;;5009297;28;20064;-57
2024/04/04 07:07:47;;;;;;;8.63;3.65;;;9.40;99.90;;;;;;5010155;28;19928;-59
2024/04/04 07:10:13;;;;;;;9.63;3.75;;;9.50;99.90;;;;;;5004401;28;20041;-57
2024/04/04 07:12:39;;;;;;;;;;;9.70;99.90;;;;;;5014336;28;20049;-57
2024/04/04 07:15:04;;;;;;;6.45;3.25;;;9.50;99.90;;;;;;5012070;28;19936;-59
2024/04/04 07:17:30;;;;;;;190.18;10.82;;;9.60;99.90;;;;;;5007923;28;20052;-57
2024/04/04 07:19:56;;;;;;;7.97;3.88;;;9.80;99.90;;;;;;5012990;28;20049;-60
2024/04/04 07:22:24;;;;;;;12.13;3.65;;;9.60;99.90;;;;;;5018798;28;20090;-59
2024/04/04 07:24:50;;;;;;;8.18;3.88;;;9.80;99.90;;;;;;4998721;28;20049;-59
2024/04/04 07:27:15;;;;;;;12.00;4.32;;;8.50;99.90;;;;;;5019473;28;20392;-57
2024/04/04 07:29:45;;;;;;;9.40;4.13;;;10.00;99.90;;;;;;5015995;28;20082;-59
2024/04/04 07:32:11;;;;;;;8.30;4.10;;;10.30;99.90;;;;;;5014526;28;20050;-57
2024/04/04 07:34:36;;;;;;;7.78;3.90;;;9.80;99.90;;;;;;5018120;28;20037;-58
2024/04/04 07:37:02;;;;;;;7.30;3.55;;;9.90;99.90;;;;;;5000585;28;20038;-59
2024/04/04 07:39:30;;;;;;;8.93;3.42;;;9.90;99.90;;;;;;5021621;28;20114;-57
2024/04/04 07:41:56;;;;;;;7.65;3.38;;;10.00;99.90;;;;;;5008385;28;20049;-58
2024/04/04 07:44:22;;;;;;;7.63;3.85;;;10.10;99.90;;;;;;5008347;28;20054;-56
2024/04/04 07:46:51;;;;;;;7.18;3.75;;;10.00;99.90;;;;;;5013286;28;20049;-59
2024/04/04 07:49:17;;;;;;;7.97;3.80;;;10.00;99.90;;;;;;5018988;28;20049;-58
2024/04/04 07:51:43;;;;;;;7.95;3.67;;;10.00;99.90;;;;;;5015223;28;20064;-59
2024/04/04 07:54:08;;;;;;;6.57;3.63;;;10.50;99.90;;;;;;5010219;28;20389;-60
2024/04/04 07:56:34;;;;;;;7.53;3.85;;;10.10;99.90;;;;;;5007750;28;20061;-57
2024/04/04 07:59:00;;;;;;;8.18;3.83;;;10.10;99.90;;;;;;5020788;28;20045;-59
2024/04/04 08:01:26;;;;;;;7.68;3.50;;;10.20;99.90;;;;;;5009627;28;20042;-59
2024/04/04 08:03:52;;;;;;;7.75;3.72;;;10.20;99.90;;;;;;5013262;28;20186;-57
2024/04/04 08:06:18;;;;;;;8.52;3.97;;;10.20;99.90;;;;;;5010424;28;20125;-57
2024/04/04 08:08:44;;;;;;;6.55;3.50;;;10.20;99.90;;;;;;5013076;28;20045;-58
2024/04/04 08:11:14;;;;;;;9.25;3.63;;;10.30;99.90;;;;;;5006854;28;20165;-58
2024/04/04 08:13:39;;;;;;;7.13;3.63;;;10.30;99.90;;;;;;5009343;28;20430;-58
2024/04/04 08:16:05;;;;;;;5.43;3.47;;;10.40;99.90;;;;;;5011333;28;20129;-58
2024/04/04 08:22:11;;;;;;;10.63;4.20;;;10.40;99.90;;;;;;5008375;28;20052;-57
2024/04/04 08:24:37;;;;;;;7.88;3.83;;;10.30;99.90;;;;;;5025557;28;20037;-58
2024/04/04 08:27:03;;;;;;;6.93;3.88;;;10.50;99.90;;;;;;5022653;28;20048;-57
2024/04/04 08:29:29;;;;;;;7.03;4.40;;;10.50;99.90;;;;;;5014720;28;20062;-57
2024/04/04 08:31:56;;;;;;;6.88;4.15;;;10.60;99.90;;;;;;4991473;28;20119;-58
2024/04/04 08:34:21;;;;;;;7.30;4.10;;;10.80;99.90;;;;;;5007983;28;20463;-59
2024/04/04 08:36:47;;;;;;;7.88;4.43;;;10.70;99.90;;;;;;5006877;28;20050;-58
2024/04/04 08:39:13;;;;;;;9.73;4.60;;;10.70;99.90;;;;;;5011708;28;20053;-58
2024/04/04 08:41:40;;;;;;;8.15;4.47;;;10.70;99.90;;;;;;5013808;28;20041;-58
2024/04/04 08:44:08;;;;;;;6.32;3.90;;;11.60;99.90;;;;;;5010011;28;20087;-58
2024/04/04 08:46:36;;;;;;;7.60;4.25;;;11.10;99.90;;;;;;5009095;28;20050;-59
2024/04/04 08:49:03;;;;;;;8.95;4.63;;;11.00;99.90;;;;;;5027841;28;20103;-59
2024/04/04 08:51:29;;;;;;;8.48;4.10;;;10.70;99.90;;;;;;5029390;28;20053;-59
2024/04/04 08:53:55;;;;;;;8.70;3.88;;;10.80;99.90;;;;;;5018692;28;20038;-58
2024/04/04 08:56:21;;;;;;;8.30;4.45;;;10.90;99.90;;;;;;5005779;28;20066;-57
2024/04/04 08:58:46;;;;;;;9.57;4.30;;;11.20;99.90;;;;;;5017299;28;20420;-59
2024/04/04 09:01:13;;;;;;;7.95;3.97;;;11.00;99.90;;;;;;5006975;28;20182;-57
2024/04/04 09:03:42;;;;;;;7.28;4.20;;;11.00;99.90;;;;;;4990706;28;20202;-59
2024/04/04 09:06:07;;;;;;;7.93;4.40;;;13.50;99.90;;;;;;5008103;28;20037;-59
2024/04/04 09:08:36;;;;;;;7.65;4.00;;;11.10;99.90;;;;;;5022962;28;20045;-57
2024/04/04 09:11:01;;;;;;;7.85;4.25;;;11.10;99.90;;;;;;5023893;28;20041;-61
2024/04/04 09:13:29;;;;;;;8.30;4.05;;;11.50;99.90;;;;;;5025376;28;20049;-58
2024/04/04 09:16:02;;;;;;;10.65;4.60;;;11.40;99.90;;;;;;5023117;28;20052;-58
2024/04/04 09:18:29;;;;;;;8.35;4.53;;;11.10;99.90;;;;;;5010304;28;20529;-57
2024/04/04 09:20:59;;;;;;;6.35;3.70;;;11.50;99.90;;;;;;5005822;28;20181;-58
2024/04/04 09:23:25;;;;;;;6.85;3.85;;;11.20;99.90;;;;;;5025518;28;20045;-59
2024/04/04 09:25:51;;;;;;;8.45;4.03;;;11.20;99.90;;;;;;5012327;28;20042;-59
2024/04/04 09:28:19;;;;;;;8.30;3.72;;;11.20;99.90;;;;;;5025639;28;20049;-58
2024/04/04 09:30:46;;;;;;;9.85;4.13;;;10.90;99.90;;;;;;5012563;28;20054;-59
2024/04/04 09:33:13;;;;;;;6.28;3.63;;;11.20;99.90;;;;;;5007914;28;20080;-58
2024/04/04 09:35:40;;;;;;;10.93;3.88;;;11.20;99.90;;;;;;5017411;28;20057;-60
2024/04/04 09:38:07;;;;;;;8.68;3.50;;;11.20;99.90;;;;;;5018206;28;20045;-59
2024/04/04 09:40:35;;;;;;;7.25;3.33;;;11.30;99.90;;;;;;5007279;28;20049;-59
2024/04/04 09:43:03;;;;;;;7.93;3.35;;;11.60;99.90;;;;;;5019427;28;20120;-61
2024/04/04 09:45:29;;;;;;;10.48;3.25;;;11.20;99.90;;;;;;5006050;28;20068;-60
2024/04/04 09:47:54;;;;;;;7.50;2.15;;;11.20;99.90;;;;;;5009242;28;20456;-60
2024/04/04 09:50:20;;;;;;;7.90;3.00;;;11.30;99.90;;;;;;5006096;28;20052;-58
2024/04/04 09:52:48;;;;;;;10.75;2.92;;;11.30;99.90;;;;;;5017516;28;20045;-59
2024/04/04 09:55:17;;;;;;;8.32;2.85;;;11.30;99.90;;;;;;5004715;28;20050;-59
2024/04/04 09:57:44;;;;;;;7.90;2.65;;;11.30;99.90;;;;;;5011257;28;20053;-59
2024/04/04 10:00:14;;;;;;;6.38;2.80;;;11.30;99.90;;;;;;5012026;28;20121;-59
2024/04/04 10:03:11;;;;;;;5.70;2.83;;;11.30;99.90;;;;;;5007598;28;20048;-59
2024/04/04 10:05:37;;;;;;;6.82;2.10;;;11.50;99.90;;;;;;5018025;28;20085;-58
2024/04/04 10:08:11;;;;;;;5.05;1.90;;;11.40;99.90;;;;;;5013269;28;20523;-59
2024/04/04 10:10:40;;;;;;;6.00;1.85;;;10.20;99.90;;;;;;5010517;28;20061;-60
2024/04/04 10:13:18;;;;;;;5.90;1.50;;;11.40;99.90;;;;;;5010570;28;20210;-59
2024/04/04 10:15:47;;;;;;;7.38;1.67;;;11.40;99.90;;;;;;5020107;28;20401;-59
2024/04/04 10:18:14;;;;;;;4.00;1.35;;;12.00;99.90;;;;;;5013787;28;20060;-58
2024/04/04 10:20:51;;;;;;;5.00;1.60;;;11.50;99.90;;;;;;5021308;28;20045;-59
2024/04/04 10:23:16;;;;;;;5.60;1.50;;;11.70;99.90;;;;;;5019830;28;20042;-58
2024/04/04 10:25:43;;;;;;;4.65;1.40;;;11.80;99.90;;;;;;5008448;28;20113;-59
2024/04/04 10:28:09;;;;;;;6.38;1.73;;;12.00;99.90;;;;;;5021093;28;20045;-60
2024/04/04 10:30:40;;;;;;;4.93;1.90;;;12.30;99.90;;;;;;5019533;28;20062;-58
2024/04/04 10:33:06;;;;;;;7.75;2.20;;;12.50;99.90;;;;;;5016573;28;20093;-60
2024/04/04 10:35:32;;;;;;;12.30;2.50;;;12.60;99.90;;;;;;5005216;28;20053;-60
2024/04/04 10:38:08;;;;;;;10.82;2.67;;;12.70;99.90;;;;;;5018739;28;20056;-60
2024/04/04 10:40:34;;;;;;;10.60;2.40;;;12.70;99.90;;;;;;5006405;28;20053;-59
2024/04/04 10:43:02;;;;;;;10.23;2.83;;;13.10;99.90;;;;;;5000487;28;20042;-61
2024/04/04 10:45:30;;;;;;;11.70;2.88;;;11.50;99.90;;;;;;5013902;28;20057;-59
2024/04/04 10:47:57;;;;;;;9.30;2.28;;;12.70;99.90;;;;;;5015325;28;20049;-59
2024/04/04 10:50:24;;;;;;;13.52;3.53;;;12.80;99.90;;;;;;5021693;28;20046;-61
2024/04/04 10:52:50;;;;;;;12.05;3.50;;;12.80;99.90;;;;;;5008169;28;20511;-60
2024/04/04 10:55:16;;;;;;;11.38;2.75;;;12.80;99.90;;;;;;5007941;28;20050;-60
2024/04/04 10:57:42;;;;;;;11.75;3.00;;;13.10;99.90;;;;;;5006954;28;20057;-61
2024/04/04 11:00:13;;;;;;;17.45;3.33;;;13.40;99.90;;;;;;5013373;28;20112;-60
2024/04/04 11:02:43;;;;;;;12.82;2.97;;;12.20;99.90;;;;;;5011752;28;20374;-60
2024/04/04 11:05:10;;;;;;;13.38;3.00;;;14.40;99.90;;;;;;5016141;28;20053;-60
2024/04/04 11:07:38;;;;;;;12.30;2.30;;;14.20;95.00;;;;;;5009853;28;20427;-59
2024/04/04 11:10:06;;;;;;;10.52;2.10;;;14.20;94.10;;;;;;5008702;28;20029;-60
2024/04/04 11:12:32;;;;;;;11.70;2.45;;;14.10;92.60;;;;;;5014515;28;20190;-60
2024/04/04 11:15:01;;;;;;;17.70;2.55;;;13.90;91.80;;;;;;5027969;28;20045;-60
2024/04/04 11:17:26;;;;;;;15.00;2.45;;;13.80;91.20;;;;;;5012854;28;20057;-60
2024/04/04 11:20:04;;;;;;;9.07;1.33;;;13.90;91.20;;;;;;5022599;28;20048;-59
2024/04/04 11:22:34;;;;;;;8.65;1.75;;;14.30;80.90;;;;;;5026010;28;20049;-59
2024/04/04 11:25:00;;;;;;;12.25;2.25;;;14.40;71.00;;;;;;5017015;28;20038;-61
2024/04/04 11:27:26;;;;;;;9.07;1.73;;;14.50;75.10;;;;;;5010042;28;20580;-60
2024/04/04 11:29:51;;;;;;;13.65;1.77;;;14.80;65.50;;;;;;5031546;28;20033;-60
2024/04/04 11:32:17;;;;;;;7.03;1.15;;;15.70;62.40;;;;;;5021227;28;20042;-60
2024/04/04 11:34:42;;;;;;;7.68;1.60;;;15.10;52.00;;;;;;5019714;28;20162;-60
2024/04/04 11:37:09;;;;;;;11.05;1.50;;;15.10;50.70;;;;;;5010588;28;20137;-60
2024/04/04 11:39:35;;;;;;;8.65;1.77;;;15.30;48.50;;;;;;5010514;28;20029;-59
2024/04/04 11:42:01;;;;;;;8.77;1.50;;;15.50;52.70;;;;;;5006080;28;20081;-60
2024/04/04 11:44:26;;;;;;;10.93;1.83;;;15.80;54.90;;;;;;5011274;28;20082;-60
2024/04/04 11:46:52;;;;;;;12.77;1.80;;;15.80;46.90;;;;;;5007614;28;20038;-58
2024/04/04 11:49:18;;;;;;;8.02;1.50;;;15.80;47.10;;;;;;5019999;28;20037;-60
2024/04/04 11:51:47;;;;;;;7.90;1.38;;;16.00;53.00;;;;;;5017033;28;20051;-60
2024/04/04 11:54:13;;;;;;;10.23;2.05;;;16.00;38.00;;;;;;5012720;28;20128;-60
2024/04/04 11:56:43;;;;;;;11.13;1.30;;;15.80;38.60;;;;;;5009491;28;20141;-60
2024/04/04 11:59:08;;;;;;;13.77;1.90;;;15.70;39.80;;;;;;5021775;28;20443;-61
2024/04/04 12:01:34;;;;;;;10.18;1.70;;;15.60;38.00;;;;;;5008813;28;20056;-60
2024/04/04 12:04:00;;;;;;;12.75;2.30;;;15.50;40.30;;;;;;5010302;28;20049;-61
2024/04/04 12:06:25;;;;;;;15.68;2.53;;;15.30;40.10;;;;;;5027529;28;20361;-60
2024/04/04 12:08:51;;;;;;;11.57;1.98;;;15.30;42.60;;;;;;5025626;28;20047;-60
2024/04/04 12:11:17;;;;;;;9.93;1.73;;;15.20;42.90;;;;;;5025949;28;20045;-60
2024/04/04 12:13:45;;;;;;;7.93;1.83;;;15.30;43.50;;;;;;5024511;28;20054;-60
2024/04/04 12:16:11;;;;;;;12.85;1.67;;;15.40;40.40;;;;;;5019542;28;20042;-61
2024/04/04 12:21:20;;;;;;;15.83;2.33;;;15.70;34.00;;;;;;5009054;28;20050;-60
2024/04/04 12:23:46;;;;;;;17.33;2.05;;;15.80;33.30;;;;;;4993973;28;20409;-60
2024/04/04 12:26:14;;;;;;;9.48;1.50;;;15.20;36.10;;;;;;5006333;28;20053;-60
2024/04/04 12:28:41;;;;;;;16.05;2.15;;;15.00;37.10;;;;;;5007083;28;20038;-61
2024/04/04 12:31:06;;;;;;;10.43;1.90;;;14.80;38.10;;;;;;5006893;28;20053;-60
2024/04/04 12:33:32;;;;;;;8.15;1.63;;;14.70;39.70;;;;;;5009654;28;20053;-60
2024/04/04 12:35:58;;;;;;;9.18;1.50;;;15.40;45.20;;;;;;5016537;28;20041;-60
2024/04/04 12:38:23;;;;;;;16.45;2.00;;;14.60;43.00;;;;;;4990209;28;20107;-60
2024/04/04 12:40:49;;;;;;;13.82;2.22;;;14.50;43.30;;;;;;5017236;28;20045;-60
2024/04/04 12:43:15;;;;;;;11.32;1.90;;;14.30;43.60;;;;;;5019173;28;20045;-60
2024/04/04 12:45:41;;;;;;;12.48;2.35;;;14.30;47.00;;;;;;5015583;28;20064;-60
2024/04/04 12:48:06;;;;;;;11.38;2.00;;;14.20;51.60;;;;;;5016113;28;20045;-59
2024/04/04 12:50:32;;;;;;;9.82;1.52;;;14.10;49.30;;;;;;5007154;28;20084;-59
2024/04/04 12:52:57;;;;;;;11.20;1.40;;;14.10;50.90;;;;;;5015128;28;20054;-59
2024/04/04 12:55:23;;;;;;;16.13;2.28;;;13.90;50.90;;;;;;5011127;28;20073;-60
2024/04/04 12:57:49;;;;;;;13.30;1.80;;;13.80;53.30;;;;;;5014690;28;20536;-60